Terminal Aerodrome Forecast
Issued by NWS Twin Cities, MN

Home | Current Version | Previous Version | Text Only | Print | Product List | Glossary Off
Versions: 1 2 3 4 5 6 7 8 9 10 11 12 13 14 15 16

000
FTUS43 KMPX 241136
TAFEAU
TAF
KEAU 241136Z 2412/2512 11005KT P6SM SCT070 OVC120
     FM241330 12006KT P6SM VCSH OVC050
     FM241500 13011KT 6SM -RA OVC040
      TEMPO 2417/2421 3SM -RA BR OVC025
     FM242200 11009KT 6SM -DZ BR OVC015
     FM250300 13006KT 4SM -RA BR OVC012=

USA.gov is the U.S. government's official web portal to all federal, state and local government web resources and services.